Time;durP1;ratioP1;P1;durP2;ratioP2;P2;SDS_P1;SDS_P2;PMS_P1;PMS_P2;Temp;Humidity;BMP_temperature;BMP_pressure;BME280_temperature;BME280_humidity;BME280_pressure;Samples;Min_cycle;Max_cycle;Signal;HPM_P1;HPM_P2
2022/01/25 00:28:22;;;;;;;19.42;10.55;;;;;;;-0.01;96.63;99725.03;5049731;28;20037;-74
2022/01/25 00:31:10;;;;;;;21.48;11.35;;;;;;;0.00;96.22;99715.91;5044209;28;20485;-75
2022/01/25 00:33:37;;;;;;;22.63;10.93;;;;;;;0.05;96.45;99719.91;5047577;28;20474;-76
2022/01/25 00:36:05;;;;;;;20.75;11.10;;;;;;;0.03;96.82;99724.66;5049641;28;20025;-77
2022/01/25 00:38:31;;;;;;;22.05;10.75;;;;;;;-0.02;97.06;99723.34;5049508;28;20025;-76
2022/01/25 00:40:56;;;;;;;20.00;10.15;;;;;;;0.03;96.85;99720.13;5049656;28;20029;-76
2022/01/25 00:43:23;;;;;;;24.08;10.65;;;;;;;-0.02;96.97;99712.59;5050154;28;20025;-77
2022/01/25 00:45:52;;;;;;;22.23;10.45;;;;;;;-0.03;96.85;99726.19;5049347;28;20040;-75
2022/01/25 00:48:19;;;;;;;18.23;11.13;;;;;;;-0.03;97.02;99710.91;5048387;28;20100;-76
2022/01/25 00:50:46;;;;;;;20.52;10.60;;;;;;;0.02;96.78;99718.44;5049605;28;20116;-75
2022/01/25 00:53:55;;;;;;;20.85;11.45;;;;;;;-0.08;97.24;99707.94;5049417;28;20029;-76
2022/01/25 00:56:11;;;;;;;20.77;10.90;;;;;;;0.00;97.07;99712.41;5048453;28;20049;-76
2022/01/25 00:58:37;;;;;;;20.70;10.48;;;;;;;0.05;96.58;99711.84;5047558;28;20466;-74
2022/01/25 01:01:02;;;;;;;25.23;12.52;;;;;;;0.00;96.02;99710.53;5049425;28;20114;-76
2022/01/25 01:03:27;;;;;;;22.85;11.02;;;;;;;0.07;96.59;99710.63;5049123;28;20021;-75
2022/01/25 01:05:53;;;;;;;21.05;10.23;;;;;;;0.02;95.75;99715.75;5047867;28;20041;-75
2022/01/25 01:08:18;;;;;;;21.27;10.90;;;;;;;0.06;96.01;99713.53;5050029;28;20071;-76
2022/01/25 01:10:44;;;;;;;18.85;10.70;;;;;;;0.07;95.50;99704.41;5049933;28;20399;-75
2022/01/25 01:13:41;;;;;;;19.92;9.88;;;;;;;0.03;94.94;99701.28;5047583;28;20025;-76
2022/01/25 01:29:50;;;;;;;17.73;9.48;;;;;;;-0.12;95.49;99681.59;5046753;28;20032;-75
2022/01/25 01:37:57;;;;;;;26.42;11.85;;;;;;;-0.30;96.76;99675.75;5052668;28;20086;-76
2022/01/25 01:45:56;;;;;;;24.08;11.15;;;;;;;-0.28;97.77;99657.59;5052109;28;20062;-74
2022/01/25 01:48:32;;;;;;;;;;;;;;;-0.16;97.42;99661.50;5051514;28;20087;-75
2022/01/25 01:51:06;;;;;;;20.98;9.82;;;;;;;-0.22;97.67;99646.09;5049694;28;19913;-75
2022/01/25 01:53:32;;;;;;;17.33;9.23;;;;;;;-0.20;97.11;99644.06;5053903;28;20039;-77
2022/01/25 01:55:58;;;;;;;19.75;9.73;;;;;;;-0.23;97.11;99639.88;5054502;28;20049;-76
2022/01/25 01:58:24;;;;;;;18.88;9.73;;;;;;;-0.12;96.99;99654.72;5052803;28;20033;-76
2022/01/25 02:00:50;;;;;;;19.63;10.35;;;;;;;-0.13;96.74;99650.38;5052290;28;20027;-75
2022/01/25 02:03:16;;;;;;;19.05;9.45;;;;;;;-0.08;96.27;99647.94;5051707;28;20466;-76
2022/01/25 02:05:43;;;;;;;20.52;10.23;;;;;;;-0.05;96.75;99652.97;5050262;28;20025;-77
2022/01/25 02:08:08;;;;;;;21.60;11.98;;;;;;;-0.05;97.64;99648.41;5049154;28;20382;-76
2022/01/25 02:10:34;;;;;;;26.25;13.38;;;;;;;-0.09;98.20;99639.03;5052422;28;20033;-75
2022/01/25 02:13:03;;;;;;;17.73;10.05;;;;;;;-0.11;98.16;99627.66;5051334;28;20056;-75
2022/01/25 02:15:28;;;;;;;19.98;10.07;;;;;;;-0.01;98.13;99630.06;5050215;28;20119;-75
2022/01/25 02:22:23;;;;;;;20.13;11.15;;;;;;;0.00;98.66;99629.06;5052783;28;20109;-76
2022/01/25 02:23:26;;;;;;;19.63;11.40;;;;;;;0.02;99.24;99626.16;5051149;28;20078;-76
2022/01/25 02:25:54;;;;;;;24.27;11.68;;;;;;;0.00;98.96;99623.66;5050640;28;20040;-75
2022/01/25 02:28:21;;;;;;;21.35;11.32;;;;;;;-0.07;99.02;99625.44;5053018;28;20036;-74
2022/01/25 02:30:47;;;;;;;19.75;10.60;;;;;;;-0.01;98.56;99628.22;5051758;28;20523;-75
2022/01/25 02:33:13;;;;;;;21.35;10.18;;;;;;;-0.02;97.63;99618.47;5050827;28;20132;-75
2022/01/25 02:35:40;;;;;;;19.30;10.40;;;;;;;-0.07;97.63;99599.38;5051384;28;20529;-74
2022/01/25 02:38:07;;;;;;;21.65;11.13;;;;;;;-0.07;98.11;99607.44;5049901;28;20112;-74
2022/01/25 02:40:33;;;;;;;23.55;10.48;;;;;;;-0.03;97.94;99602.50;5050095;28;20025;-75
2022/01/25 02:42:58;;;;;;;18.90;9.15;;;;;;;-0.06;97.83;99598.34;5046715;28;20516;-74
2022/01/25 02:45:31;;;;;;;26.40;10.20;;;;;;;-0.15;98.51;99604.84;5050846;28;20037;-74
2022/01/25 02:50:40;;;;;;;23.70;10.93;;;;;;;-0.23;99.15;99586.13;5050234;28;20040;-74
2022/01/25 02:53:06;;;;;;;22.30;11.35;;;;;;;-0.23;99.92;99583.44;5049754;28;20024;-75
2022/01/25 02:55:31;;;;;;;19.77;11.02;;;;;;;-0.24;100.00;99586.28;5050533;28;20454;-74
2022/01/25 02:57:56;;;;;;;22.50;10.63;;;;;;;-0.21;99.99;99581.38;5050686;28;20111;-75
2022/01/25 03:00:22;;;;;;;22.90;11.30;;;;;;;-0.34;100.00;99586.56;5050888;28;20025;-75
2022/01/25 03:02:47;;;;;;;21.25;10.68;;;;;;;-0.29;100.00;99580.66;5050694;28;20036;-75
2022/01/25 03:05:13;;;;;;;21.30;10.43;;;;;;;-0.26;100.00;99572.22;5050551;28;20489;-74
2022/01/25 03:07:39;;;;;;;20.60;10.55;;;;;;;-0.20;100.00;99574.16;5049182;28;20040;-74
2022/01/25 03:10:06;;;;;;;18.80;10.13;;;;;;;-0.23;100.00;99567.31;5049344;28;20035;-74
2022/01/25 03:12:41;;;;;;;23.67;11.40;;;;;;;-0.25;100.00;99574.72;5050392;28;21205;-74
2022/01/25 03:17:48;;;;;;;23.00;12.02;;;;;;;-0.23;100.00;99572.69;5050395;28;20068;-74
2022/01/25 03:20:36;;;;;;;22.95;11.55;;;;;;;-0.30;100.00;99574.44;5049636;28;20037;-74
2022/01/25 03:23:16;;;;;;;27.90;12.23;;;;;;;-0.25;99.83;99566.66;5050728;28;20123;-75
2022/01/25 03:25:42;;;;;;;24.15;13.35;;;;;;;-0.31;99.92;99570.06;5050054;28;20032;-74
2022/01/25 03:28:07;;;;;;;23.83;11.85;;;;;;;-0.33;99.91;99569.44;5050358;28;20028;-74
2022/01/25 03:30:32;;;;;;;28.75;13.90;;;;;;;-0.31;100.00;99556.63;5049620;28;20429;-74
2022/01/25 03:32:58;;;;;;;26.05;13.98;;;;;;;-0.33;100.00;99563.22;5049756;28;20021;-74
2022/01/25 03:35:23;;;;;;;27.70;13.55;;;;;;;-0.33;100.00;99553.31;5050520;28;20017;-75
2022/01/25 03:37:49;;;;;;;23.50;12.57;;;;;;;-0.31;100.00;99556.63;5050364;28;20377;-74
2022/01/25 03:40:14;;;;;;;27.40;13.15;;;;;;;-0.36;100.00;99548.31;5050595;28;20029;-74
2022/01/25 03:42:40;;;;;;;23.25;12.55;;;;;;;-0.33;100.00;99556.00;5049700;28;20025;-75
2022/01/25 03:45:07;;;;;;;28.55;15.27;;;;;;;-0.32;100.00;99549.63;5049993;28;20033;-74
2022/01/25 03:47:45;;;;;;;26.48;13.90;;;;;;;-0.46;100.00;99553.13;5051114;28;20032;-74
2022/01/25 03:50:11;;;;;;;26.40;14.00;;;;;;;-0.44;100.00;99545.72;5051064;28;20563;-75
2022/01/25 03:52:37;;;;;;;26.00;12.73;;;;;;;-0.44;100.00;99542.22;5050047;28;20116;-75
2022/01/25 03:55:05;;;;;;;26.13;14.00;;;;;;;-0.41;100.00;99536.47;5048987;28;20113;-74
2022/01/25 03:57:31;;;;;;;24.67;13.10;;;;;;;-0.41;100.00;99528.41;5049489;28;20045;-75
2022/01/25 03:59:59;;;;;;;24.85;13.15;;;;;;;-0.33;100.00;99533.66;5050022;28;20062;-75
2022/01/25 04:02:27;;;;;;;25.50;13.43;;;;;;;-0.42;100.00;99532.09;5050624;28;20470;-74
2022/01/25 04:04:52;;;;;;;28.80;14.35;;;;;;;-0.36;100.00;99537.56;5051457;28;20072;-76
2022/01/25 04:07:26;;;;;;;27.55;13.07;;;;;;;-0.33;100.00;99531.81;5053428;28;20056;-76
2022/01/25 04:09:52;;;;;;;26.95;13.60;;;;;;;-0.25;100.00;99539.75;5051515;28;20033;-75
2022/01/25 04:12:17;;;;;;;27.92;13.60;;;;;;;-0.28;100.00;99518.63;5049662;28;20470;-75
2022/01/25 04:14:43;;;;;;;26.80;14.02;;;;;;;-0.17;100.00;99528.09;5049465;28;20032;-75
2022/01/25 04:17:12;;;;;;;33.60;14.35;;;;;;;-0.19;100.00;99522.88;5050504;28;20070;-75
2022/01/25 04:19:43;;;;;;;23.88;13.55;;;;;;;-0.25;100.00;99518.25;5052522;28;20025;-75
2022/01/25 04:25:04;;;;;;;24.45;13.25;;;;;;;-0.26;100.00;99515.78;5050391;28;20033;-75
2022/01/25 04:27:30;;;;;;;23.42;12.95;;;;;;;-0.29;100.00;99510.78;5049727;28;20032;-75
2022/01/25 04:29:56;;;;;;;29.02;13.48;;;;;;;-0.22;100.00;99517.06;5048809;28;20020;-75
2022/01/25 04:32:34;;;;;;;26.70;14.23;;;;;;;-0.20;100.00;99504.25;5048425;28;20028;-76
2022/01/25 04:35:24;;;;;;;24.98;13.43;;;;;;;-0.17;100.00;99509.25;5048217;28;20748;-76
2022/01/25 04:49:10;;;;;;;25.52;14.07;;;;;;;-0.21;100.00;99495.38;5036338;28;20047;-75
2022/01/25 04:59:19;;;;;;;27.73;14.45;;;;;;;-0.32;100.00;99489.66;5049719;28;20033;-74
2022/01/25 05:01:46;;;;;;;27.08;14.40;;;;;;;-0.26;100.00;99481.66;5048018;28;20029;-74
2022/01/25 05:04:19;;;;;;;26.73;12.88;;;;;;;-0.30;100.00;99480.38;5048243;28;20112;-75
2022/01/25 05:06:47;;;;;;;28.70;14.02;;;;;;;-0.40;100.00;99463.69;5050273;28;20064;-75
2022/01/25 05:09:13;;;;;;;27.45;14.77;;;;;;;-0.28;100.00;99478.31;5052486;28;20134;-74
2022/01/25 05:11:45;;;;;;;28.80;14.50;;;;;;;-0.26;100.00;99473.59;5052604;28;20063;-74
2022/01/25 05:14:16;;;;;;;26.48;12.95;;;;;;;-0.41;100.00;99467.44;5053129;28;20065;-75
2022/01/25 05:16:51;;;;;;;26.88;13.65;;;;;;;-0.37;100.00;99471.38;5053688;28;20033;-75
2022/01/25 05:24:29;;;;;;;;;;;;;;;-0.48;100.00;99466.50;5053465;28;20124;-75
2022/01/25 05:26:55;;;;;;;;;;;;;;;-0.48;100.00;99469.19;5053539;28;20039;-75
2022/01/25 05:29:20;;;;;;;33.03;15.50;;;;;;;-0.52;100.00;99465.19;5052179;28;19920;-75
2022/01/25 05:31:46;;;;;;;29.35;14.38;;;;;;;-0.48;100.00;99466.50;5054890;28;20044;-75
2022/01/25 05:34:11;;;;;;;28.55;14.48;;;;;;;-0.36;100.00;99462.31;5053798;28;20524;-75
2022/01/25 05:36:38;;;;;;;24.13;13.60;;;;;;;-0.41;100.00;99462.06;5052894;28;20532;-75
2022/01/25 05:39:11;;;;;;;31.10;14.77;;;;;;;-0.47;100.00;99462.78;5053117;28;20100;-75
2022/01/25 05:41:36;;;;;;;28.90;14.80;;;;;;;-0.53;100.00;99457.34;5053319;28;20021;-75
2022/01/25 05:44:56;;;;;;;26.63;14.75;;;;;;;-0.57;100.00;99443.44;5052320;28;20086;-74
2022/01/25 05:49:23;;;;;;;36.10;15.95;;;;;;;-0.67;100.00;99453.63;5052952;28;20090;-75
2022/01/25 05:51:49;;;;;;;30.48;15.02;;;;;;;-0.79;100.00;99439.03;5053448;28;20021;-74
2022/01/25 05:54:15;;;;;;;29.60;15.52;;;;;;;-0.80;100.00;99437.34;5053019;28;20474;-75
2022/01/25 05:56:40;;;;;;;30.70;15.07;;;;;;;-0.65;100.00;99452.44;5052323;28;20053;-75
2022/01/25 05:59:06;;;;;;;30.98;16.48;;;;;;;-0.74;100.00;99439.28;5052633;28;20021;-75
2022/01/25 06:01:32;;;;;;;26.17;13.80;;;;;;;-0.73;100.00;99439.13;5052276;28;20386;-76
2022/01/25 06:03:58;;;;;;;34.08;14.15;;;;;;;-0.80;100.00;99435.50;5051523;28;20017;-74
2022/01/25 06:06:24;;;;;;;28.13;14.90;;;;;;;-0.82;100.00;99434.03;5050383;28;20491;-74
2022/01/25 06:08:49;;;;;;;27.85;14.13;;;;;;;-0.78;100.00;99429.94;5051846;28;20032;-75
2022/01/25 06:11:15;;;;;;;29.05;15.63;;;;;;;-0.70;100.00;99436.06;5052696;28;20029;-75
2022/01/25 06:13:40;;;;;;;31.67;15.13;;;;;;;-0.68;100.00;99435.84;5051664;28;20482;-74
2022/01/25 06:16:06;;;;;;;26.42;14.50;;;;;;;-0.79;100.00;99423.75;5051881;28;20492;-75
2022/01/25 06:18:31;;;;;;;27.95;14.43;;;;;;;-0.86;100.00;99417.44;5053003;28;20021;-75
2022/01/25 06:20:56;;;;;;;28.30;14.75;;;;;;;-0.91;100.00;99424.41;5055189;28;20025;-77
2022/01/25 06:23:22;;;;;;;26.98;15.05;;;;;;;-1.11;100.00;99419.59;5052666;28;20375;-75
2022/01/25 06:25:47;;;;;;;25.73;13.40;;;;;;;-1.16;100.00;99421.97;5052595;28;20040;-75
2022/01/25 06:28:13;;;;;;;25.27;14.45;;;;;;;-1.33;100.00;99415.13;5051885;28;20056;-74
2022/01/25 06:30:39;;;;;;;28.92;15.05;;;;;;;-1.36;100.00;99428.91;5051418;28;20017;-75
2022/01/25 06:33:07;;;;;;;28.08;14.27;;;;;;;-1.23;100.00;99426.44;5051387;28;20471;-74
2022/01/25 06:35:34;;;;;;;34.03;15.82;;;;;;;-1.22;100.00;99428.06;5052126;28;20024;-75
2022/01/25 06:38:00;;;;;;;36.38;18.05;;;;;;;-1.25;100.00;99425.75;5051106;28;20436;-75
2022/01/25 06:40:26;;;;;;;42.03;19.48;;;;;;;-1.33;100.00;99428.53;5051440;28;20025;-74
2022/01/25 06:42:52;;;;;;;35.53;18.13;;;;;;;-1.28;100.00;99427.97;5050515;28;20017;-74
2022/01/25 06:45:20;;;;;;;39.30;19.83;;;;;;;-1.20;100.00;99427.91;5052375;28;20465;-74
2022/01/25 06:47:47;;;;;;;41.13;19.25;;;;;;;-1.14;100.00;99435.22;5036728;28;20033;-73
2022/01/25 06:50:16;;;;;;;39.42;19.55;;;;;;;-1.27;100.00;99424.28;5054728;28;20032;-73
2022/01/25 06:52:42;;;;;;;36.60;18.65;;;;;;;-1.17;100.00;99436.44;5050809;28;20036;-74
2022/01/25 06:55:12;;;;;;;38.30;19.13;;;;;;;-0.99;100.00;99428.00;5050939;28;20033;-73
2022/01/25 06:57:38;;;;;;;36.30;17.67;;;;;;;-0.90;100.00;99426.88;5050568;28;20066;-73
2022/01/25 07:00:10;;;;;;;33.67;16.17;;;;;;;-0.29;100.00;99430.97;5048924;28;20025;-73
2022/01/25 07:02:36;;;;;;;35.53;15.77;;;;;;;0.50;100.00;99429.06;5049458;28;20487;-71
2022/01/25 07:05:02;;;;;;;30.63;16.00;;;;;;;1.11;99.13;99423.88;5049976;28;20115;-73
2022/01/25 07:07:29;;;;;;;30.80;15.82;;;;;;;1.74;95.41;99425.41;5051157;28;20063;-75
2022/01/25 07:09:57;;;;;;;35.72;15.05;;;;;;;2.41;90.49;99436.97;5048403;28;20032;-75
2022/01/25 07:12:23;;;;;;;30.90;14.93;;;;;;;3.31;85.20;99427.34;5051588;28;20028;-82
2022/01/25 07:14:49;;;;;;;37.58;18.08;;;;;;;3.59;81.80;99426.00;5049814;28;20025;-75
2022/01/25 07:17:14;;;;;;;39.90;18.40;;;;;;;3.90;79.69;99436.06;5048709;28;20151;-75
2022/01/25 07:19:40;;;;;;;41.40;21.58;;;;;;;4.11;77.93;99433.00;5049141;28;20089;-74
2022/01/25 07:22:05;;;;;;;38.05;19.63;;;;;;;4.14;77.72;99442.56;5050370;28;20028;-74
2022/01/25 07:24:32;;;;;;;33.75;17.63;;;;;;;4.11;76.57;99429.47;5048734;28;20017;-74
2022/01/25 07:26:57;;;;;;;34.65;17.58;;;;;;;4.39;75.96;99434.50;5050101;28;20025;-73
2022/01/25 07:29:23;;;;;;;36.88;19.15;;;;;;;4.90;73.55;99432.44;5048546;28;20032;-76
2022/01/25 07:31:48;;;;;;;35.65;20.10;;;;;;;4.76;73.16;99437.13;5052435;28;20032;-76
2022/01/25 07:34:14;;;;;;;36.33;19.38;;;;;;;4.98;71.79;99434.84;5047450;28;20037;-73
2022/01/25 07:36:42;;;;;;;33.30;17.33;;;;;;;5.55;70.05;99424.66;5050112;28;20429;-73
2022/01/25 07:39:09;;;;;;;30.33;18.67;;;;;;;5.80;68.27;99428.94;5050075;28;20021;-74
2022/01/25 07:41:35;;;;;;;32.30;16.92;;;;;;;5.99;67.25;99424.34;5047567;28;20033;-74
2022/01/25 07:44:00;;;;;;;30.25;16.65;;;;;;;6.22;65.89;99421.72;5051865;28;20059;-74
2022/01/25 07:46:26;;;;;;;34.00;18.83;;;;;;;6.31;65.65;99424.94;5050295;28;20488;-74
2022/01/25 07:48:52;;;;;;;37.65;19.42;;;;;;;6.35;65.49;99426.97;5050457;28;20486;-73
2022/01/25 07:51:17;;;;;;;32.80;18.25;;;;;;;7.08;63.15;99429.31;5050051;28;20029;-74
2022/01/25 07:53:44;;;;;;;27.25;15.15;;;;;;;6.92;64.37;99413.72;5047556;28;20124;-75
2022/01/25 07:56:09;;;;;;;24.83;15.52;;;;;;;7.69;61.59;99417.06;5048424;28;20049;-74
2022/01/25 07:58:36;;;;;;;26.17;15.85;;;;;;;7.47;60.90;99414.97;5049119;28;20025;-74
2022/01/25 08:01:02;;;;;;;28.10;15.25;;;;;;;7.86;59.77;99407.88;5049495;28;20025;-74
2022/01/25 08:03:27;;;;;;;30.55;16.90;;;;;;;7.81;59.43;99420.59;5048126;28;20155;-74
2022/01/25 08:05:53;;;;;;;33.42;18.70;;;;;;;8.25;57.64;99413.53;5043701;28;20033;-80
2022/01/25 08:08:18;;;;;;;33.53;17.58;;;;;;;7.78;58.96;99405.56;5048240;28;20106;-76
2022/01/25 08:10:44;;;;;;;30.75;15.98;;;;;;;8.06;58.33;99408.31;5047344;28;20028;-75
2022/01/25 08:13:09;;;;;;;26.20;16.15;;;;;;;8.22;58.65;99411.31;5044322;28;20387;-75
2022/01/25 08:15:35;;;;;;;29.55;17.23;;;;;;;8.87;56.51;99404.31;5049699;28;20557;-74
2022/01/25 08:18:00;;;;;;;29.77;16.95;;;;;;;8.79;55.76;99402.00;5045202;28;20446;-75
2022/01/25 08:20:26;;;;;;;23.38;14.75;;;;;;;8.33;56.53;99403.09;5049068;28;20490;-75
2022/01/25 08:22:52;;;;;;;27.77;16.33;;;;;;;7.99;57.94;99402.16;5048662;28;20045;-75
2022/01/25 08:25:19;;;;;;;31.20;17.13;;;;;;;8.13;57.34;99399.97;5047322;28;20451;-74
2022/01/25 08:27:45;;;;;;;26.90;15.07;;;;;;;8.48;56.88;99403.41;5048952;28;20479;-74
2022/01/25 08:30:11;;;;;;;31.00;17.17;;;;;;;8.76;55.96;99396.22;5048846;28;20028;-75
2022/01/25 08:32:39;;;;;;;29.05;16.20;;;;;;;8.88;55.27;99389.59;5051417;28;20029;-76
2022/01/25 08:35:05;;;;;;;25.00;15.73;;;;;;;8.76;55.56;99399.78;5050957;28;20422;-75
2022/01/25 08:37:31;;;;;;;29.30;15.80;;;;;;;8.92;54.62;99400.84;5047464;28;20462;-74
2022/01/25 08:39:56;;;;;;;31.23;15.98;;;;;;;9.02;54.21;99390.09;5048977;28;20029;-76
2022/01/25 08:42:22;;;;;;;25.70;15.40;;;;;;;8.66;55.60;99391.41;5047972;28;20371;-74
2022/01/25 08:44:47;;;;;;;23.70;14.90;;;;;;;9.06;54.74;99397.50;5047611;28;20040;-74
2022/01/25 08:47:13;;;;;;;25.55;15.45;;;;;;;9.54;53.22;99387.81;5048605;28;20036;-74
2022/01/25 08:49:39;;;;;;;24.23;15.63;;;;;;;9.61;53.30;99383.00;5048454;28;20100;-74
2022/01/25 08:52:09;;;;;;;25.13;15.15;;;;;;;9.77;53.25;99393.03;5043877;28;20112;-75
2022/01/25 08:54:35;;;;;;;22.70;13.63;;;;;;;10.33;50.29;99390.97;5048626;28;20071;-74
2022/01/25 08:57:01;;;;;;;25.65;15.13;;;;;;;9.12;53.76;99390.22;5049354;28;20060;-74
2022/01/25 08:59:27;;;;;;;26.90;16.80;;;;;;;10.40;50.25;99392.38;5043168;28;20114;-74
2022/01/25 09:01:52;;;;;;;26.67;16.50;;;;;;;10.37;49.96;99394.84;5041310;28;20048;-74
2022/01/25 09:04:18;;;;;;;23.90;15.35;;;;;;;10.03;50.54;99388.69;5044193;28;20041;-74
2022/01/25 09:06:44;;;;;;;26.42;15.63;;;;;;;9.84;51.83;99393.66;5048721;28;20075;-74
2022/01/25 09:09:10;;;;;;;24.30;14.88;;;;;;;10.19;50.81;99390.53;5044470;28;20033;-73
2022/01/25 09:11:39;;;;;;;25.92;14.23;;;;;;;10.39;50.18;99385.28;5043180;28;20418;-74
2022/01/25 09:14:05;;;;;;;28.52;15.95;;;;;;;9.92;50.80;99379.56;5045175;28;20020;-74
2022/01/25 09:16:32;;;;;;;29.40;16.52;;;;;;;10.06;50.86;99372.59;5046113;28;20023;-74
2022/01/25 09:18:57;;;;;;;29.55;14.50;;;;;;;10.26;49.94;99382.97;5048534;28;20027;-74
2022/01/25 09:21:23;;;;;;;23.35;15.18;;;;;;;10.35;50.35;99388.78;5043402;28;20119;-75
2022/01/25 09:23:48;;;;;;;21.45;13.45;;;;;;;10.58;49.89;99383.00;5034905;28;20540;-72
2022/01/25 09:26:14;;;;;;;26.02;14.23;;;;;;;10.69;49.50;99388.28;5032111;28;20069;-73
2022/01/25 09:28:40;;;;;;;23.25;14.63;;;;;;;10.19;50.28;99388.63;5035933;28;20140;-72
2022/01/25 09:31:05;;;;;;;21.85;14.18;;;;;;;10.54;49.52;99382.69;5031448;28;20467;-72
2022/01/25 09:33:30;;;;;;;25.23;15.07;;;;;;;10.44;49.65;99382.59;5029507;28;20029;-73
2022/01/25 09:35:56;;;;;;;28.05;14.18;;;;;;;10.52;49.94;99373.09;5029523;28;20057;-73
2022/01/25 09:38:23;;;;;;;24.10;13.30;;;;;;;10.41;50.00;99383.09;5047710;28;20052;-72
2022/01/25 09:40:50;;;;;;;29.02;12.70;;;;;;;11.45;48.43;99374.31;5048741;28;20028;-71
2022/01/25 09:43:16;;;;;;;23.70;13.82;;;;;;;11.34;46.91;99369.88;5049030;28;20021;-71
2022/01/25 09:45:42;;;;;;;28.55;13.85;;;;;;;11.39;47.57;99378.94;5046167;28;20037;-71
2022/01/25 09:48:08;;;;;;;26.95;14.77;;;;;;;10.62;49.45;99371.25;5038730;28;20026;-72
2022/01/25 09:50:36;;;;;;;26.17;13.98;;;;;;;11.10;48.92;99366.69;5045121;28;20401;-72
2022/01/25 09:53:03;;;;;;;24.55;13.77;;;;;;;10.80;48.93;99369.22;5045646;28;20732;-71
2022/01/25 09:55:32;;;;;;;26.05;13.23;;;;;;;9.89;50.05;99366.41;5043421;28;20375;-73
2022/01/25 09:57:57;;;;;;;25.73;13.88;;;;;;;10.30;50.41;99361.41;5051004;28;20037;-74
2022/01/25 10:00:26;;;;;;;26.98;14.20;;;;;;;11.10;48.60;99374.91;5051891;28;20044;-72
2022/01/25 10:03:10;;;;;;;22.05;13.35;;;;;;;12.51;44.95;99369.19;5044265;28;20364;-72
2022/01/25 10:05:42;;;;;;;24.50;13.70;;;;;;;12.06;44.34;99372.69;5035221;28;20371;-72
2022/01/25 10:08:37;;;;;;;22.00;13.85;;;;;;;11.89;45.16;99366.59;5031141;28;20133;-73
2022/01/25 10:11:10;;;;;;;23.88;13.27;;;;;;;12.20;45.36;99362.84;5031187;28;20041;-72
2022/01/25 10:13:51;;;;;;;19.55;12.50;;;;;;;12.47;44.06;99365.38;5031022;28;20376;-72
2022/01/25 10:16:28;;;;;;;18.90;11.68;;;;;;;12.73;43.24;99354.09;5039083;28;20056;-71
2022/01/25 10:18:59;;;;;;;21.05;13.30;;;;;;;11.93;43.30;99352.06;5045276;28;20098;-73
2022/01/25 10:21:31;;;;;;;20.27;13.13;;;;;;;11.45;44.30;99344.16;5046637;28;20555;-74
2022/01/25 10:24:17;;;;;;;20.85;12.95;;;;;;;11.32;44.75;99328.19;5047853;28;20490;-74
2022/01/25 10:26:52;;;;;;;18.55;12.77;;;;;;;11.47;45.01;99331.84;5049412;28;20029;-74
2022/01/25 10:29:20;;;;;;;19.25;11.85;;;;;;;11.52;44.57;99318.19;5049248;28;20028;-75
2022/01/25 10:31:52;;;;;;;18.95;11.98;;;;;;;11.61;44.51;99323.97;5052662;28;20080;-79
2022/01/25 10:34:25;;;;;;;20.77;11.95;;;;;;;11.34;45.40;99313.16;5054626;28;20044;-75
2022/01/25 10:36:52;;;;;;;26.02;12.27;;;;;;;11.85;44.37;99316.94;5051010;28;20017;-75
2022/01/25 10:39:27;;;;;;;20.33;12.35;;;;;;;11.69;44.29;99321.53;5051574;28;20474;-75
2022/01/25 10:42:04;;;;;;;16.60;11.85;;;;;;;11.46;45.44;99308.28;5047508;28;20040;-75
2022/01/25 10:44:56;;;;;;;20.60;12.15;;;;;;;11.26;45.41;99306.28;5059654;28;20502;-75
2022/01/25 10:47:45;;;;;;;20.05;12.63;;;;;;;11.13;46.45;99308.66;5052916;28;20025;-75
2022/01/25 10:50:15;;;;;;;21.20;12.68;;;;;;;11.57;45.24;99300.91;5051918;28;20036;-72
2022/01/25 10:52:41;;;;;;;21.63;12.15;;;;;;;12.03;43.53;99301.91;5032929;28;20033;-72
2022/01/25 10:55:07;;;;;;;18.58;11.93;;;;;;;11.65;45.16;99312.19;5031317;28;20029;-71
2022/01/25 10:57:33;;;;;;;24.13;12.38;;;;;;;13.59;41.04;99295.44;5031887;28;20038;-72
2022/01/25 11:00:03;;;;;;;25.25;12.60;;;;;;;13.04;41.48;99299.13;5031032;28;20026;-71
2022/01/25 11:02:28;;;;;;;22.63;14.23;;;;;;;12.28;42.31;99301.94;5032382;28;20030;-72
2022/01/25 11:05:05;;;;;;;22.05;13.80;;;;;;;12.66;42.57;99290.41;5030088;28;20055;-75
2022/01/25 11:07:46;;;;;;;23.45;13.35;;;;;;;12.64;41.59;99283.56;5031475;28;20303;-76
2022/01/25 11:10:18;;;;;;;20.20;13.43;;;;;;;11.57;44.46;99282.56;5032743;28;20547;-75
2022/01/25 11:12:59;;;;;;;24.08;13.75;;;;;;;12.31;43.52;99279.44;5032881;28;20384;-75
2022/01/25 11:15:25;;;;;;;26.83;13.63;;;;;;;11.81;43.48;99275.53;5041231;28;20037;-74
2022/01/25 11:17:52;;;;;;;24.80;12.55;;;;;;;11.10;45.77;99255.25;5044045;28;20029;-74
2022/01/25 11:20:17;;;;;;;29.05;13.02;;;;;;;11.26;45.28;99256.97;5052721;28;20686;-75
2022/01/25 11:22:45;;;;;;;22.30;13.43;;;;;;;10.89;46.45;99261.72;5051103;28;20124;-76
2022/01/25 11:25:11;;;;;;;26.13;14.52;;;;;;;10.72;47.06;99255.56;5052611;28;20112;-79
2022/01/25 11:27:39;;;;;;;30.20;14.38;;;;;;;10.46;47.83;99248.31;5053876;28;20498;-76
2022/01/25 11:30:10;;;;;;;23.65;13.85;;;;;;;10.24;48.60;99239.38;5051911;28;20036;-78
2022/01/25 11:32:42;;;;;;;23.05;13.90;;;;;;;11.26;46.47;99236.97;5046182;28;20028;-74
2022/01/25 11:35:10;;;;;;;22.63;13.25;;;;;;;11.01;46.87;99234.13;5046457;28;20029;-75
2022/01/25 11:37:42;;;;;;;25.17;13.52;;;;;;;10.47;47.84;99233.53;5049227;28;20394;-75
2022/01/25 11:40:20;;;;;;;30.27;14.68;;;;;;;10.28;48.96;99240.47;5052814;28;20017;-75
2022/01/25 11:42:51;;;;;;;25.55;13.70;;;;;;;10.10;49.20;99231.56;5044035;28;20032;-75
2022/01/25 11:45:23;;;;;;;26.70;14.52;;;;;;;8.97;51.81;99215.34;5050516;28;20064;-75
2022/01/25 11:47:51;;;;;;;28.25;14.10;;;;;;;9.02;52.47;99220.91;5048976;28;20029;-75
2022/01/25 11:50:17;;;;;;;22.52;13.60;;;;;;;8.94;52.98;99222.16;5049947;28;20051;-75
2022/01/25 11:52:53;;;;;;;24.65;13.68;;;;;;;8.98;52.95;99215.13;5050971;28;20044;-75
2022/01/25 11:55:26;;;;;;;27.30;15.15;;;;;;;7.87;55.56;99215.31;5050094;28;20025;-77
2022/01/25 11:58:05;;;;;;;28.92;14.75;;;;;;;7.66;57.69;99216.03;5049793;28;20039;-75
2022/01/25 12:00:41;;;;;;;29.40;13.98;;;;;;;7.33;58.68;99206.72;5049579;28;20025;-75
2022/01/25 12:03:20;;;;;;;28.52;14.38;;;;;;;6.97;59.36;99201.69;5044892;28;20371;-75
2022/01/25 12:05:58;;;;;;;27.48;14.73;;;;;;;6.84;60.40;99166.59;5068654;28;20029;-74
2022/01/25 12:08:40;;;;;;;25.95;15.02;;;;;;;7.02;60.79;99192.81;5046785;28;20080;-75
2022/01/25 12:11:32;;;;;;;23.52;14.50;;;;;;;7.03;60.36;99189.00;5047873;28;20039;-75
2022/01/25 12:14:09;;;;;;;26.55;14.20;;;;;;;7.13;60.55;99184.59;5043357;28;20037;-75
2022/01/25 12:16:46;;;;;;;26.65;14.82;;;;;;;7.03;60.63;99173.50;5049053;28;20029;-75
2022/01/25 12:19:19;;;;;;;29.38;14.40;;;;;;;6.88;61.22;99171.31;5047614;28;20036;-74
2022/01/25 12:21:48;;;;;;;25.95;14.75;;;;;;;6.84;61.16;99169.31;5044196;28;20029;-75
2022/01/25 12:24:26;;;;;;;31.05;15.27;;;;;;;6.78;61.65;99162.13;5040104;28;20041;-74
2022/01/25 12:29:43;;;;;;;27.30;15.05;;;;;;;6.91;61.19;99145.53;5045322;28;20025;-75
2022/01/25 12:32:36;;;;;;;29.17;15.38;;;;;;;7.03;61.60;99140.88;5043512;28;20293;-75
2022/01/25 12:35:16;;;;;;;31.85;13.65;;;;;;;7.08;61.16;99138.22;5051920;28;20108;-82
2022/01/25 12:37:45;;;;;;;26.60;14.70;;;;;;;7.15;61.06;99136.19;5044359;28;20033;-75
2022/01/25 12:40:26;;;;;;;27.55;14.93;;;;;;;7.20;60.94;99125.41;5044963;28;20028;-76
2022/01/25 12:42:55;;;;;;;26.98;14.80;;;;;;;7.09;61.55;99123.56;5048013;28;20031;-74
2022/01/25 12:45:23;;;;;;;30.98;15.63;;;;;;;6.97;61.74;99117.34;5048165;28;20357;-73
2022/01/25 12:48:06;;;;;;;28.88;14.98;;;;;;;6.96;61.82;99107.53;5043840;28;20037;-74
2022/01/25 12:50:34;;;;;;;30.17;15.50;;;;;;;7.03;61.69;99102.78;5047792;28;20025;-72
2022/01/25 12:53:01;;;;;;;29.52;14.40;;;;;;;6.73;62.96;99104.94;5048097;28;20099;-73
2022/01/25 12:55:33;;;;;;;32.30;15.27;;;;;;;6.75;62.75;99095.47;5052658;28;20052;-73
2022/01/25 12:57:58;;;;;;;35.30;15.43;;;;;;;6.91;62.69;99091.13;5043652;28;20048;-73
2022/01/25 13:00:30;;;;;;;25.42;15.45;;;;;;;6.86;62.79;99093.78;5045057;28;20477;-72